Terminal Aerodrome Forecast
Issued by NWS Charleston, WV

Current Version | Previous Version | Graphics & Text | Print | Product List | Glossary On
Versions: 1 2 3 4 5 6 7 8 9 10 11 12 13 14 15 16 17 18 19 20 21 22 23 24 25 26
605
FTUS41 KRLX 210252 AAA
TAFEKN
TAF AMD
KEKN 210252Z 2103/2124 00000KT P6SM SCT090
     FM210700 00000KT 5SM BR SCT200
     FM210900 00000KT 1 1/2SM BR SCT001
     FM211300 24002KT P6SM SCT090
     FM211500 27008KT P6SM BKN070=

USA.gov is the U.S. government's official web portal to all federal, state and local government web resources and services.